sensor_id;sensor_type;location;lat;lon;timestamp;pressure;altitude;pressure_sealevel;temperature;humidity
16738;BME280;17906;47.684;10.806;2023-04-09T00:01:58;93748.09;;;0.50;100.00
16738;BME280;17906;47.684;10.806;2023-04-09T00:04:25;93747.59;;;0.54;100.00
16738;BME280;17906;47.684;10.806;2023-04-09T00:06:52;93745.44;;;0.50;100.00
16738;BME280;17906;47.684;10.806;2023-04-09T00:09:18;93746.81;;;0.46;100.00
16738;BME280;17906;47.684;10.806;2023-04-09T00:11:45;93756.50;;;0.39;100.00
16738;BME280;17906;47.684;10.806;2023-04-09T00:14:13;93750.84;;;0.42;100.00
16738;BME280;17906;47.684;10.806;2023-04-09T00:16:40;93743.59;;;0.50;100.00
16738;BME280;17906;47.684;10.806;2023-04-09T00:19:06;93738.09;;;0.52;100.00
16738;BME280;17906;47.684;10.806;2023-04-09T00:21:33;93733.38;;;0.62;100.00
16738;BME280;17906;47.684;10.806;2023-04-09T00:24:00;93738.88;;;0.60;100.00
16738;BME280;17906;47.684;10.806;2023-04-09T00:26:26;93732.06;;;0.58;100.00
16738;BME280;17906;47.684;10.806;2023-04-09T00:28:53;93735.31;;;0.45;100.00
16738;BME280;17906;47.684;10.806;2023-04-09T00:31:21;93740.03;;;0.35;100.00
16738;BME280;17906;47.684;10.806;2023-04-09T00:33:47;93745.22;;;0.28;100.00
16738;BME280;17906;47.684;10.806;2023-04-09T00:36:14;93743.72;;;0.26;100.00
16738;BME280;17906;47.684;10.806;2023-04-09T00:38:40;93737.22;;;0.28;100.00
16738;BME280;17906;47.684;10.806;2023-04-09T00:41:07;93733.53;;;0.29;100.00
16738;BME280;17906;47.684;10.806;2023-04-09T00:43:33;93735.22;;;0.30;100.00
16738;BME280;17906;47.684;10.806;2023-04-09T00:46:00;93742.91;;;0.25;100.00
16738;BME280;17906;47.684;10.806;2023-04-09T00:48:28;93736.38;;;0.28;100.00
16738;BME280;17906;47.684;10.806;2023-04-09T00:50:55;93728.19;;;0.38;100.00
16738;BME280;17906;47.684;10.806;2023-04-09T00:53:22;93729.31;;;0.43;100.00
16738;BME280;17906;47.684;10.806;2023-04-09T00:55:49;93733.69;;;0.36;100.00
16738;BME280;17906;47.684;10.806;2023-04-09T00:58:15;93733.84;;;0.43;100.00
16738;BME280;17906;47.684;10.806;2023-04-09T01:00:42;93723.81;;;0.45;100.00
16738;BME280;17906;47.684;10.806;2023-04-09T01:03:09;93725.53;;;0.60;100.00
16738;BME280;17906;47.684;10.806;2023-04-09T01:05:41;93726.59;;;0.51;100.00
16738;BME280;17906;47.684;10.806;2023-04-09T01:08:17;93721.31;;;0.43;100.00
16738;BME280;17906;47.684;10.806;2023-04-09T01:10:49;93725.66;;;0.44;100.00
16738;BME280;17906;47.684;10.806;2023-04-09T01:13:27;93725.28;;;0.47;100.00
16738;BME280;17906;47.684;10.806;2023-04-09T01:15:58;93720.28;;;0.52;100.00
16738;BME280;17906;47.684;10.806;2023-04-09T01:18:29;93716.41;;;0.55;100.00
16738;BME280;17906;47.684;10.806;2023-04-09T01:20:59;93715.22;;;0.57;100.00
16738;BME280;17906;47.684;10.806;2023-04-09T01:23:34;93721.56;;;0.56;100.00
16738;BME280;17906;47.684;10.806;2023-04-09T01:26:06;93719.28;;;0.53;100.00
16738;BME280;17906;47.684;10.806;2023-04-09T01:28:41;93725.25;;;0.55;100.00
16738;BME280;17906;47.684;10.806;2023-04-09T01:31:12;93726.56;;;0.59;100.00
16738;BME280;17906;47.684;10.806;2023-04-09T01:33:39;93720.38;;;0.59;100.00
16738;BME280;17906;47.684;10.806;2023-04-09T01:36:07;93716.53;;;0.61;100.00
16738;BME280;17906;47.684;10.806;2023-04-09T01:38:34;93727.47;;;0.75;100.00
16738;BME280;17906;47.684;10.806;2023-04-09T01:41:02;93720.44;;;0.74;100.00
16738;BME280;17906;47.684;10.806;2023-04-09T01:43:29;93729.19;;;0.68;100.00
16738;BME280;17906;47.684;10.806;2023-04-09T01:46:00;93719.50;;;0.67;100.00
16738;BME280;17906;47.684;10.806;2023-04-09T01:48:28;93719.03;;;0.63;100.00
16738;BME280;17906;47.684;10.806;2023-04-09T01:50:55;93720.28;;;0.52;100.00
16738;BME280;17906;47.684;10.806;2023-04-09T01:53:21;93721.25;;;0.51;100.00
16738;BME280;17906;47.684;10.806;2023-04-09T01:55:48;93721.63;;;0.48;100.00
16738;BME280;17906;47.684;10.806;2023-04-09T01:58:15;93727.53;;;0.67;100.00
16738;BME280;17906;47.684;10.806;2023-04-09T02:00:46;93725.22;;;0.64;100.00
16738;BME280;17906;47.684;10.806;2023-04-09T02:03:17;93724.88;;;0.58;100.00
16738;BME280;17906;47.684;10.806;2023-04-09T02:05:54;93725.03;;;0.65;100.00
16738;BME280;17906;47.684;10.806;2023-04-09T02:08:22;93718.47;;;0.76;100.00
16738;BME280;17906;47.684;10.806;2023-04-09T02:10:53;93724.81;;;0.75;100.00
16738;BME280;17906;47.684;10.806;2023-04-09T02:13:22;93725.09;;;0.80;100.00
16738;BME280;17906;47.684;10.806;2023-04-09T02:15:50;93723.78;;;0.76;100.00
16738;BME280;17906;47.684;10.806;2023-04-09T02:18:23;93722.25;;;0.81;100.00
16738;BME280;17906;47.684;10.806;2023-04-09T02:20:51;93724.09;;;0.81;100.00
16738;BME280;17906;47.684;10.806;2023-04-09T02:23:17;93729.47;;;0.73;100.00
16738;BME280;17906;47.684;10.806;2023-04-09T02:25:44;93722.59;;;0.78;100.00
16738;BME280;17906;47.684;10.806;2023-04-09T02:28:11;93719.81;;;0.72;100.00
16738;BME280;17906;47.684;10.806;2023-04-09T02:30:37;93723.84;;;0.68;100.00
16738;BME280;17906;47.684;10.806;2023-04-09T02:33:04;93718.88;;;0.65;100.00
16738;BME280;17906;47.684;10.806;2023-04-09T02:35:32;93718.88;;;0.65;100.00
16738;BME280;17906;47.684;10.806;2023-04-09T02:37:59;93724.53;;;0.61;100.00
16738;BME280;17906;47.684;10.806;2023-04-09T02:40:25;93717.22;;;0.64;100.00
16738;BME280;17906;47.684;10.806;2023-04-09T02:42:52;93710.91;;;0.56;100.00
16738;BME280;17906;47.684;10.806;2023-04-09T02:45:19;93718.13;;;0.48;100.00
16738;BME280;17906;47.684;10.806;2023-04-09T02:47:45;93712.84;;;0.63;100.00
16738;BME280;17906;47.684;10.806;2023-04-09T02:50:12;93710.91;;;0.56;100.00
16738;BME280;17906;47.684;10.806;2023-04-09T02:52:40;93708.88;;;0.58;100.00
16738;BME280;17906;47.684;10.806;2023-04-09T02:55:07;93698.09;;;0.52;100.00
16738;BME280;17906;47.684;10.806;2023-04-09T02:57:33;93700.63;;;0.45;100.00
16738;BME280;17906;47.684;10.806;2023-04-09T03:00:00;93704.19;;;0.60;100.00
16738;BME280;17906;47.684;10.806;2023-04-09T03:02:27;93704.28;;;0.52;100.00
16738;BME280;17906;47.684;10.806;2023-04-09T03:04:53;93698.38;;;0.34;100.00
16738;BME280;17906;47.684;10.806;2023-04-09T03:07:20;93703.28;;;0.22;100.00
16738;BME280;17906;47.684;10.806;2023-04-09T03:09:49;93709.81;;;0.12;100.00
16738;BME280;17906;47.684;10.806;2023-04-09T03:12:17;93704.16;;;0.07;100.00
16738;BME280;17906;47.684;10.806;2023-04-09T03:14:44;93698.31;;;0.11;100.00
16738;BME280;17906;47.684;10.806;2023-04-09T03:17:10;93689.69;;;0.09;100.00
16738;BME280;17906;47.684;10.806;2023-04-09T03:19:37;93695.94;;;0.16;100.00
16738;BME280;17906;47.684;10.806;2023-04-09T03:22:04;93692.44;;;0.24;100.00
16738;BME280;17906;47.684;10.806;2023-04-09T03:24:30;93695.91;;;0.24;100.00
16738;BME280;17906;47.684;10.806;2023-04-09T03:26:58;93694.09;;;0.25;100.00
16738;BME280;17906;47.684;10.806;2023-04-09T03:29:25;93680.41;;;0.28;100.00
16738;BME280;17906;47.684;10.806;2023-04-09T03:31:51;93685.78;;;0.20;100.00
16738;BME280;17906;47.684;10.806;2023-04-09T03:34:18;93698.75;;;0.23;100.00
16738;BME280;17906;47.684;10.806;2023-04-09T03:36:45;93686.38;;;0.30;100.00
16738;BME280;17906;47.684;10.806;2023-04-09T03:39:11;93678.66;;;0.43;100.00
16738;BME280;17906;47.684;10.806;2023-04-09T03:41:37;93682.84;;;0.38;100.00
16738;BME280;17906;47.684;10.806;2023-04-09T03:44:05;93680.59;;;0.49;100.00
16738;BME280;17906;47.684;10.806;2023-04-09T03:46:32;93687.91;;;0.55;100.00
16738;BME280;17906;47.684;10.806;2023-04-09T03:48:58;93686.53;;;0.37;100.00
16738;BME280;17906;47.684;10.806;2023-04-09T03:51:25;93682.16;;;0.13;100.00
16738;BME280;17906;47.684;10.806;2023-04-09T03:53:52;93679.50;;;0.13;100.00
16738;BME280;17906;47.684;10.806;2023-04-09T03:56:18;93684.09;;;0.19;100.00
16738;BME280;17906;47.684;10.806;2023-04-09T03:58:45;93688.47;;;0.20;100.00
16738;BME280;17906;47.684;10.806;2023-04-09T04:01:14;93688.28;;;0.21;100.00
16738;BME280;17906;47.684;10.806;2023-04-09T04:03:40;93686.78;;;0.19;100.00
16738;BME280;17906;47.684;10.806;2023-04-09T04:06:07;93679.78;;;0.18;100.00
16738;BME280;17906;47.684;10.806;2023-04-09T04:08:33;93685.09;;;0.18;100.00
16738;BME280;17906;47.684;10.806;2023-04-09T04:11:02;93685.09;;;0.18;100.00
16738;BME280;17906;47.684;10.806;2023-04-09T04:13:29;93683.41;;;0.25;100.00
16738;BME280;17906;47.684;10.806;2023-04-09T04:15:55;93689.75;;;0.24;100.00
16738;BME280;17906;47.684;10.806;2023-04-09T04:18:23;93691.38;;;0.33;100.00
16738;BME280;17906;47.684;10.806;2023-04-09T04:20:50;93690.59;;;0.24;100.00
16738;BME280;17906;47.684;10.806;2023-04-09T04:23:16;93694.53;;;-0.03;100.00
16738;BME280;17906;47.684;10.806;2023-04-09T04:25:43;93686.78;;;0.19;100.00
16738;BME280;17906;47.684;10.806;2023-04-09T04:28:09;93688.97;;;0.15;100.00
16738;BME280;17906;47.684;10.806;2023-04-09T04:30:36;93702.81;;;0.11;100.00
16738;BME280;17906;47.684;10.806;2023-04-09T04:33:03;93695.22;;;-0.01;100.00
16738;BME280;17906;47.684;10.806;2023-04-09T04:35:30;93698.56;;;-0.07;100.00
16738;BME280;17906;47.684;10.806;2023-04-09T04:37:57;93701.03;;;-0.05;100.00
16738;BME280;17906;47.684;10.806;2023-04-09T04:40:23;93706.88;;;-0.02;100.00
16738;BME280;17906;47.684;10.806;2023-04-09T04:42:50;93705.03;;;-0.01;100.00
16738;BME280;17906;47.684;10.806;2023-04-09T04:45:16;93698.00;;;0.06;100.00
16738;BME280;17906;47.684;10.806;2023-04-09T04:47:43;93689.97;;;0.14;100.00
16738;BME280;17906;47.684;10.806;2023-04-09T04:50:10;93710.13;;;0.17;100.00
16738;BME280;17906;47.684;10.806;2023-04-09T04:52:38;93714.41;;;0.26;100.00
16738;BME280;17906;47.684;10.806;2023-04-09T04:55:05;93707.88;;;0.28;100.00
16738;BME280;17906;47.684;10.806;2023-04-09T04:57:32;93708.22;;;0.34;100.00
16738;BME280;17906;47.684;10.806;2023-04-09T04:59:58;93722.59;;;0.24;100.00
16738;BME280;17906;47.684;10.806;2023-04-09T05:02:25;93720.78;;;0.17;100.00
16738;BME280;17906;47.684;10.806;2023-04-09T05:04:51;93721.78;;;0.16;100.00
16738;BME280;17906;47.684;10.806;2023-04-09T05:07:18;93720.75;;;0.25;100.00
16738;BME280;17906;47.684;10.806;2023-04-09T05:09:46;93725.97;;;0.10;100.00
16738;BME280;17906;47.684;10.806;2023-04-09T05:12:12;93731.69;;;-0.01;100.00
16738;BME280;17906;47.684;10.806;2023-04-09T05:14:39;93730.03;;;-0.02;100.00
16738;BME280;17906;47.684;10.806;2023-04-09T05:17:06;93726.66;;;0.04;100.00
16738;BME280;17906;47.684;10.806;2023-04-09T05:19:32;93725.59;;;0.21;100.00
16738;BME280;17906;47.684;10.806;2023-04-09T05:21:59;93713.84;;;0.39;100.00
16738;BME280;17906;47.684;10.806;2023-04-09T05:24:26;93730.09;;;0.52;100.00
16738;BME280;17906;47.684;10.806;2023-04-09T05:26:53;93714.09;;;0.52;100.00
16738;BME280;17906;47.684;10.806;2023-04-09T05:29:20;93719.66;;;0.42;100.00
16738;BME280;17906;47.684;10.806;2023-04-09T05:31:46;93728.22;;;0.29;100.00
16738;BME280;17906;47.684;10.806;2023-04-09T05:34:13;93709.53;;;0.29;100.00
16738;BME280;17906;47.684;10.806;2023-04-09T05:36:40;93717.16;;;0.41;100.00
16738;BME280;17906;47.684;10.806;2023-04-09T05:39:06;93712.94;;;0.54;100.00
16738;BME280;17906;47.684;10.806;2023-04-09T05:41:33;93718.91;;;0.56;100.00
16738;BME280;17906;47.684;10.806;2023-04-09T05:44:03;93709.84;;;0.66;100.00
16738;BME280;17906;47.684;10.806;2023-04-09T05:46:29;93717.22;;;0.64;100.00
16738;BME280;17906;47.684;10.806;2023-04-09T05:48:56;93710.69;;;0.66;100.00
16738;BME280;17906;47.684;10.806;2023-04-09T05:51:23;93714.47;;;0.72;100.00
16738;BME280;17906;47.684;10.806;2023-04-09T05:53:49;93705.88;;;0.84;100.00
16738;BME280;17906;47.684;10.806;2023-04-09T05:56:16;93720.16;;;0.92;100.00
16738;BME280;17906;47.684;10.806;2023-04-09T05:58:43;93716.31;;;0.94;100.00
16738;BME280;17906;47.684;10.806;2023-04-09T06:01:10;93721.06;;;1.07;100.00
16738;BME280;17906;47.684;10.806;2023-04-09T06:03:37;93714.53;;;1.09;100.00
16738;BME280;17906;47.684;10.806;2023-04-09T06:06:04;93716.56;;;1.07;100.00
16738;BME280;17906;47.684;10.806;2023-04-09T06:08:30;93728.16;;;1.14;100.00
16738;BME280;17906;47.684;10.806;2023-04-09T06:10:57;93722.72;;;1.08;100.00
16738;BME280;17906;47.684;10.806;2023-04-09T06:13:24;93724.22;;;1.10;100.00
16738;BME280;17906;47.684;10.806;2023-04-09T06:15:51;93736.19;;;1.14;100.00
16738;BME280;17906;47.684;10.806;2023-04-09T06:18:18;93730.97;;;1.21;100.00
16738;BME280;17906;47.684;10.806;2023-04-09T06:20:45;93738.84;;;1.14;100.00
16738;BME280;17906;47.684;10.806;2023-04-09T06:23:12;93728.09;;;1.23;100.00
16738;BME280;17906;47.684;10.806;2023-04-09T06:25:38;93735.88;;;1.32;100.00
16738;BME280;17906;47.684;10.806;2023-04-09T06:28:05;93735.41;;;1.29;100.00
16738;BME280;17906;47.684;10.806;2023-04-09T06:30:31;93742.41;;;1.30;100.00
16738;BME280;17906;47.684;10.806;2023-04-09T06:32:59;93749.25;;;1.09;100.00
16738;BME280;17906;47.684;10.806;2023-04-09T06:35:28;93746.63;;;1.01;100.00
16738;BME280;17906;47.684;10.806;2023-04-09T06:37:54;93746.03;;;1.14;100.00
16738;BME280;17906;47.684;10.806;2023-04-09T06:40:21;93755.19;;;1.19;100.00
16738;BME280;17906;47.684;10.806;2023-04-09T06:42:47;93744.13;;;1.23;100.00
16738;BME280;17906;47.684;10.806;2023-04-09T06:45:14;93745.72;;;1.32;100.00
16738;BME280;17906;47.684;10.806;2023-04-09T06:47:41;93737.28;;;1.43;100.00
16738;BME280;17906;47.684;10.806;2023-04-09T06:50:08;93740.63;;;1.60;100.00
16738;BME280;17906;47.684;10.806;2023-04-09T06:52:35;93746.06;;;1.52;100.00
16738;BME280;17906;47.684;10.806;2023-04-09T06:55:02;93750.03;;;1.56;100.00
16738;BME280;17906;47.684;10.806;2023-04-09T06:57:29;93746.06;;;1.52;100.00
16738;BME280;17906;47.684;10.806;2023-04-09T06:59:55;93752.75;;;1.47;100.00
16738;BME280;17906;47.684;10.806;2023-04-09T07:02:22;93759.03;;;1.40;100.00
16738;BME280;17906;47.684;10.806;2023-04-09T07:04:48;93758.66;;;1.43;100.00
16738;BME280;17906;47.684;10.806;2023-04-09T07:07:15;93758.59;;;1.51;100.00
16738;BME280;17906;47.684;10.806;2023-04-09T07:09:44;93763.69;;;1.38;100.00
16738;BME280;17906;47.684;10.806;2023-04-09T07:12:10;93766.53;;;1.36;100.00
16738;BME280;17906;47.684;10.806;2023-04-09T07:14:37;93758.13;;;1.25;100.00
16738;BME280;17906;47.684;10.806;2023-04-09T07:17:03;93757.66;;;1.21;100.00
16738;BME280;17906;47.684;10.806;2023-04-09T07:19:32;93758.13;;;1.25;100.00
16738;BME280;17906;47.684;10.806;2023-04-09T07:21:58;93762.22;;;1.35;100.00
16738;BME280;17906;47.684;10.806;2023-04-09T07:24:25;93758.66;;;1.43;100.00
16738;BME280;17906;47.684;10.806;2023-04-09T07:26:53;93761.72;;;1.55;100.00
16738;BME280;17906;47.684;10.806;2023-04-09T07:29:20;93764.84;;;1.58;100.00
16738;BME280;17906;47.684;10.806;2023-04-09T07:31:47;93771.25;;;1.34;100.00
16738;BME280;17906;47.684;10.806;2023-04-09T07:34:13;93771.63;;;1.46;100.00
16738;BME280;17906;47.684;10.806;2023-04-09T07:36:40;93771.03;;;1.59;100.00
16738;BME280;17906;47.684;10.806;2023-04-09T07:39:07;93769.84;;;1.61;100.00
16738;BME280;17906;47.684;10.806;2023-04-09T07:41:33;93766.56;;;1.74;100.00
16738;BME280;17906;47.684;10.806;2023-04-09T07:44:02;93766.81;;;1.79;100.00
16738;BME280;17906;47.684;10.806;2023-04-09T07:46:30;93766.75;;;1.87;100.00
16738;BME280;17906;47.684;10.806;2023-04-09T07:48:57;93775.59;;;1.88;100.00
16738;BME280;17906;47.684;10.806;2023-04-09T07:51:23;93772.53;;;1.76;100.00
16738;BME280;17906;47.684;10.806;2023-04-09T07:53:50;93776.50;;;1.65;100.00
16738;BME280;17906;47.684;10.806;2023-04-09T07:56:17;93771.41;;;1.70;100.00
16738;BME280;17906;47.684;10.806;2023-04-09T07:58:43;93776.31;;;1.67;100.00
16738;BME280;17906;47.684;10.806;2023-04-09T08:01:11;93774.81;;;1.64;100.00
16738;BME280;17906;47.684;10.806;2023-04-09T08:03:38;93780.00;;;1.66;100.00
16738;BME280;17906;47.684;10.806;2023-04-09T08:06:05;93774.09;;;1.70;100.00
16738;BME280;17906;47.684;10.806;2023-04-09T08:08:31;93775.84;;;1.63;100.00
16738;BME280;17906;47.684;10.806;2023-04-09T08:10:58;93775.41;;;1.89;100.00
16738;BME280;17906;47.684;10.806;2023-04-09T08:13:25;93771.19;;;2.90;100.00
16738;BME280;17906;47.684;10.806;2023-04-09T08:15:51;93762.31;;;3.47;93.29
16738;BME280;17906;47.684;10.806;2023-04-09T08:18:19;93766.34;;;3.79;88.21
16738;BME280;17906;47.684;10.806;2023-04-09T08:20:46;93760.41;;;4.12;86.64
16738;BME280;17906;47.684;10.806;2023-04-09T08:23:12;93764.00;;;3.97;83.02
16738;BME280;17906;47.684;10.806;2023-04-09T08:25:39;93763.66;;;3.58;84.88
16738;BME280;17906;47.684;10.806;2023-04-09T08:28:06;93767.16;;;3.79;90.66
16738;BME280;17906;47.684;10.806;2023-04-09T08:30:33;93759.44;;;3.98;90.67
16738;BME280;17906;47.684;10.806;2023-04-09T08:33:00;93765.22;;;3.95;86.50
16738;BME280;17906;47.684;10.806;2023-04-09T08:35:28;93766.84;;;3.89;85.23
16738;BME280;17906;47.684;10.806;2023-04-09T08:37:55;93765.94;;;3.82;86.44
16738;BME280;17906;47.684;10.806;2023-04-09T08:40:22;93760.75;;;4.02;85.25
16738;BME280;17906;47.684;10.806;2023-04-09T08:42:53;93764.56;;;4.55;84.75
16738;BME280;17906;47.684;10.806;2023-04-09T08:45:20;93759.13;;;5.64;80.03
16738;BME280;17906;47.684;10.806;2023-04-09T08:47:48;93756.44;;;5.97;75.78
16738;BME280;17906;47.684;10.806;2023-04-09T08:50:15;93762.25;;;5.74;77.06
16738;BME280;17906;47.684;10.806;2023-04-09T08:52:45;93756.66;;;6.22;73.18
16738;BME280;17906;47.684;10.806;2023-04-09T08:55:12;93761.81;;;7.02;74.00
16738;BME280;17906;47.684;10.806;2023-04-09T08:57:39;93760.84;;;7.34;71.08
16738;BME280;17906;47.684;10.806;2023-04-09T09:00:07;93760.84;;;7.34;71.08
16738;BME280;17906;47.684;10.806;2023-04-09T09:02:34;93764.00;;;7.24;68.33
16738;BME280;17906;47.684;10.806;2023-04-09T09:05:01;93770.03;;;6.68;62.70
16738;BME280;17906;47.684;10.806;2023-04-09T09:07:28;93772.06;;;7.31;69.12
16738;BME280;17906;47.684;10.806;2023-04-09T09:09:57;93766.06;;;7.99;62.33
16738;BME280;17906;47.684;10.806;2023-04-09T09:12:34;93777.28;;;6.68;63.14
16738;BME280;17906;47.684;10.806;2023-04-09T09:15:01;93784.59;;;6.34;64.60
16738;BME280;17906;47.684;10.806;2023-04-09T09:17:27;93776.94;;;6.25;63.88
16738;BME280;17906;47.684;10.806;2023-04-09T09:19:54;93772.16;;;6.40;65.15
16738;BME280;17906;47.684;10.806;2023-04-09T09:22:21;93775.41;;;6.68;64.62
16738;BME280;17906;47.684;10.806;2023-04-09T09:24:49;93777.44;;;6.93;68.46
16738;BME280;17906;47.684;10.806;2023-04-09T09:27:34;93773.97;;;6.73;61.46
16738;BME280;17906;47.684;10.806;2023-04-09T09:30:04;93773.56;;;6.62;63.38
16738;BME280;17906;47.684;10.806;2023-04-09T09:32:33;93773.47;;;6.95;61.19
16738;BME280;17906;47.684;10.806;2023-04-09T09:35:01;93777.28;;;7.26;57.68
16738;BME280;17906;47.684;10.806;2023-04-09T09:37:28;93772.94;;;7.56;58.00
16738;BME280;17906;47.684;10.806;2023-04-09T09:39:56;93768.09;;;7.34;60.53
16738;BME280;17906;47.684;10.806;2023-04-09T09:42:23;93776.44;;;8.02;57.80
16738;BME280;17906;47.684;10.806;2023-04-09T09:44:52;93772.69;;;8.03;56.80
16738;BME280;17906;47.684;10.806;2023-04-09T09:47:19;93773.84;;;7.50;56.93
16738;BME280;17906;47.684;10.806;2023-04-09T09:49:47;93771.47;;;7.22;56.13
16738;BME280;17906;47.684;10.806;2023-04-09T09:52:14;93761.06;;;7.71;54.30
16738;BME280;17906;47.684;10.806;2023-04-09T09:54:42;93772.22;;;7.43;53.01
16738;BME280;17906;47.684;10.806;2023-04-09T09:57:10;93758.50;;;7.44;50.20
16738;BME280;17906;47.684;10.806;2023-04-09T09:59:40;93758.16;;;8.22;53.55
16738;BME280;17906;47.684;10.806;2023-04-09T10:02:17;93758.56;;;8.26;54.60
16738;BME280;17906;47.684;10.806;2023-04-09T10:04:44;93760.44;;;8.68;50.75
16738;BME280;17906;47.684;10.806;2023-04-09T10:07:12;93757.31;;;8.90;49.89
16738;BME280;17906;47.684;10.806;2023-04-09T10:09:41;93751.78;;;9.93;50.62
16738;BME280;17906;47.684;10.806;2023-04-09T10:12:10;93748.16;;;9.57;48.66
16738;BME280;17906;47.684;10.806;2023-04-09T10:14:38;93746.22;;;9.28;48.57
16738;BME280;17906;47.684;10.806;2023-04-09T10:17:05;93745.13;;;8.62;51.20
16738;BME280;17906;47.684;10.806;2023-04-09T10:19:37;93754.13;;;8.74;54.46
16738;BME280;17906;47.684;10.806;2023-04-09T10:22:07;93742.66;;;8.79;51.48
16738;BME280;17906;47.684;10.806;2023-04-09T10:24:35;93735.31;;;9.35;51.20
16738;BME280;17906;47.684;10.806;2023-04-09T10:27:09;93748.72;;;8.56;47.90
16738;BME280;17906;47.684;10.806;2023-04-09T10:29:41;93750.53;;;7.94;50.44
16738;BME280;17906;47.684;10.806;2023-04-09T10:32:09;93744.91;;;7.57;48.67
16738;BME280;17906;47.684;10.806;2023-04-09T10:34:39;93744.34;;;8.37;49.44
16738;BME280;17906;47.684;10.806;2023-04-09T10:37:06;93747.13;;;8.49;48.32
16738;BME280;17906;47.684;10.806;2023-04-09T10:39:38;93733.41;;;8.87;50.34
16738;BME280;17906;47.684;10.806;2023-04-09T10:42:07;93734.47;;;8.67;48.04
16738;BME280;17906;47.684;10.806;2023-04-09T10:44:34;93739.41;;;8.52;49.42
16738;BME280;17906;47.684;10.806;2023-04-09T10:47:02;93730.56;;;9.00;51.11
16738;BME280;17906;47.684;10.806;2023-04-09T10:49:35;93725.78;;;9.32;46.64
16738;BME280;17906;47.684;10.806;2023-04-09T10:52:04;93733.00;;;9.20;45.85
16738;BME280;17906;47.684;10.806;2023-04-09T10:54:42;93733.22;;;9.18;48.83
16738;BME280;17906;47.684;10.806;2023-04-09T10:57:18;93742.72;;;8.91;48.31
16738;BME280;17906;47.684;10.806;2023-04-09T10:59:47;93733.94;;;8.95;46.29
16738;BME280;17906;47.684;10.806;2023-04-09T11:02:36;93738.31;;;8.78;46.31
16738;BME280;17906;47.684;10.806;2023-04-09T11:05:18;93735.28;;;8.50;50.36
16738;BME280;17906;47.684;10.806;2023-04-09T11:07:52;93744.22;;;8.68;48.90
16738;BME280;17906;47.684;10.806;2023-04-09T11:10:19;93742.88;;;8.96;49.29
16738;BME280;17906;47.684;10.806;2023-04-09T11:12:47;93736.34;;;8.85;45.82
16738;BME280;17906;47.684;10.806;2023-04-09T11:15:17;93737.22;;;9.16;48.95
16738;BME280;17906;47.684;10.806;2023-04-09T11:17:45;93746.50;;;9.38;47.14
16738;BME280;17906;47.684;10.806;2023-04-09T11:20:12;93736.53;;;9.20;43.92
16738;BME280;17906;47.684;10.806;2023-04-09T11:22:39;93728.09;;;9.77;46.62
16738;BME280;17906;47.684;10.806;2023-04-09T11:25:07;93730.41;;;9.73;45.53
16738;BME280;17906;47.684;10.806;2023-04-09T11:27:36;93734.00;;;9.07;42.62
16738;BME280;17906;47.684;10.806;2023-04-09T11:30:03;93748.44;;;8.83;44.86
16738;BME280;17906;47.684;10.806;2023-04-09T11:32:30;93748.59;;;8.69;45.67
16738;BME280;17906;47.684;10.806;2023-04-09T11:34:57;93749.47;;;8.45;44.57
16738;BME280;17906;47.684;10.806;2023-04-09T11:37:23;93758.06;;;8.79;44.14
16738;BME280;17906;47.684;10.806;2023-04-09T11:39:50;93742.22;;;9.00;45.44
16738;BME280;17906;47.684;10.806;2023-04-09T11:42:20;93752.97;;;9.55;45.91
16738;BME280;17906;47.684;10.806;2023-04-09T11:44:48;93736.03;;;9.60;43.33
16738;BME280;17906;47.684;10.806;2023-04-09T11:47:14;93737.47;;;9.74;41.68
16738;BME280;17906;47.684;10.806;2023-04-09T11:49:44;93750.03;;;9.39;42.24
16738;BME280;17906;47.684;10.806;2023-04-09T11:52:12;93744.47;;;8.67;42.89
16738;BME280;17906;47.684;10.806;2023-04-09T11:54:40;93755.03;;;8.68;47.39
16738;BME280;17906;47.684;10.806;2023-04-09T11:57:07;93751.34;;;7.95;44.87
16738;BME280;17906;47.684;10.806;2023-04-09T11:59:37;93751.09;;;8.03;45.70
16738;BME280;17906;47.684;10.806;2023-04-09T12:02:05;93754.28;;;7.86;47.08
16738;BME280;17906;47.684;10.806;2023-04-09T12:04:32;93750.25;;;8.02;46.12
16738;BME280;17906;47.684;10.806;2023-04-09T12:06:58;93749.31;;;7.83;46.08
16738;BME280;17906;47.684;10.806;2023-04-09T12:09:25;93751.91;;;8.03;47.07
16738;BME280;17906;47.684;10.806;2023-04-09T12:11:52;93748.53;;;8.08;45.76
16738;BME280;17906;47.684;10.806;2023-04-09T12:14:20;93744.31;;;7.94;46.19
16738;BME280;17906;47.684;10.806;2023-04-09T12:16:51;93740.28;;;8.03;44.31
16738;BME280;17906;47.684;10.806;2023-04-09T12:19:18;93743.59;;;8.05;45.11
16738;BME280;17906;47.684;10.806;2023-04-09T12:21:46;93735.25;;;8.06;46.38
16738;BME280;17906;47.684;10.806;2023-04-09T12:24:13;93737.28;;;8.54;44.82
16738;BME280;17906;47.684;10.806;2023-04-09T12:26:40;93735.22;;;8.74;46.49
16738;BME280;17906;47.684;10.806;2023-04-09T12:29:06;93732.97;;;8.90;43.94
16738;BME280;17906;47.684;10.806;2023-04-09T12:31:33;93737.44;;;8.41;44.81
16738;BME280;17906;47.684;10.806;2023-04-09T12:34:02;93726.09;;;8.32;44.42
16738;BME280;17906;47.684;10.806;2023-04-09T12:36:28;93735.97;;;8.45;44.58
16738;BME280;17906;47.684;10.806;2023-04-09T12:38:55;93742.19;;;8.21;46.62
16738;BME280;17906;47.684;10.806;2023-04-09T12:41:22;93740.66;;;8.06;46.27
16738;BME280;17906;47.684;10.806;2023-04-09T12:43:50;93735.00;;;8.14;46.89
16738;BME280;17906;47.684;10.806;2023-04-09T12:46:17;93737.28;;;8.36;47.72
16738;BME280;17906;47.684;10.806;2023-04-09T12:48:43;93736.91;;;8.51;46.45
16738;BME280;17906;47.684;10.806;2023-04-09T12:51:12;93737.44;;;8.41;45.71
16738;BME280;17906;47.684;10.806;2023-04-09T12:53:38;93733.00;;;8.03;46.76
16738;BME280;17906;47.684;10.806;2023-04-09T12:56:06;93737.47;;;7.84;46.49